Time;durP1;ratioP1;P1;durP2;ratioP2;P2;SDS_P1;SDS_P2;PMS_P1;PMS_P2;Temp;Humidity;BMP_temperature;BMP_pressure;BME280_temperature;BME280_humidity;BME280_pressure;Samples;Min_cycle;Max_cycle;Signal;HPM_P1;HPM_P2
2021/09/14 00:00:14;;;;;;;24.67;22.17;;;14.00;99.90;;;;;;2088532;28;20098;-70
2021/09/14 00:01:15;;;;;;;24.33;21.77;;;14.00;99.90;;;;;;2096817;28;20118;-69
2021/09/14 00:02:15;;;;;;;26.58;23.88;;;14.00;99.90;;;;;;2097207;28;20040;-70
2021/09/14 00:03:16;;;;;;;25.10;22.40;;;14.00;99.90;;;;;;2097084;28;20103;-70
2021/09/14 00:04:16;;;;;;;26.00;23.13;;;14.00;99.90;;;;;;2095735;28;20039;-70
2021/09/14 00:05:17;;;;;;;25.10;22.42;;;14.00;99.90;;;;;;2089874;28;20032;-69
2021/09/14 00:06:18;;;;;;;24.90;22.17;;;14.00;99.90;;;;;;2092006;28;20047;-69
2021/09/14 00:07:18;;;;;;;24.00;21.50;;;14.00;99.90;;;;;;2096520;28;20074;-69
2021/09/14 00:08:19;;;;;;;24.05;21.45;;;14.00;99.90;;;;;;2096181;28;20068;-69
2021/09/14 00:09:20;;;;;;;24.77;22.17;;;14.00;99.90;;;;;;2093726;28;20029;-70
2021/09/14 00:10:20;;;;;;;24.48;22.00;;;14.00;99.90;;;;;;2096383;28;20028;-70
2021/09/14 00:11:21;;;;;;;24.67;22.08;;;14.00;99.90;;;;;;2096743;28;20513;-69
2021/09/14 00:12:22;;;;;;;26.17;22.35;;;13.90;99.90;;;;;;2089118;28;20025;-69
2021/09/14 00:13:22;;;;;;;25.63;22.65;;;13.90;99.90;;;;;;2088111;28;20382;-69
2021/09/14 00:14:23;;;;;;;25.60;22.90;;;13.90;99.90;;;;;;2089109;28;20033;-69
2021/09/14 00:15:24;;;;;;;24.88;22.17;;;13.90;99.90;;;;;;2096402;28;20032;-69
2021/09/14 00:16:25;;;;;;;24.23;21.63;;;13.90;99.90;;;;;;2103676;28;20020;-69
2021/09/14 00:17:25;;;;;;;23.90;21.45;;;13.90;99.90;;;;;;2094181;28;20035;-69
2021/09/14 00:18:26;;;;;;;25.25;22.27;;;13.90;99.90;;;;;;2097057;28;20035;-69
2021/09/14 00:19:27;;;;;;;25.40;22.00;;;13.90;99.90;;;;;;2089170;28;20163;-69
2021/09/14 00:20:27;;;;;;;25.98;22.08;;;13.90;99.90;;;;;;2088319;28;20033;-69
2021/09/14 00:21:28;;;;;;;23.88;21.10;;;13.90;99.90;;;;;;2088455;28;20029;-69
2021/09/14 00:22:29;;;;;;;25.05;22.33;;;13.90;99.90;;;;;;2088842;28;20036;-69
2021/09/14 00:23:30;;;;;;;25.13;21.95;;;13.90;99.90;;;;;;2088523;28;20064;-69
2021/09/14 00:24:31;;;;;;;24.42;21.92;;;13.90;99.90;;;;;;2088665;28;20073;-69
2021/09/14 00:25:32;;;;;;;23.85;21.17;;;13.90;99.90;;;;;;2103224;28;20081;-69
2021/09/14 00:26:32;;;;;;;23.38;20.88;;;13.90;99.90;;;;;;2088057;28;20037;-69
2021/09/14 00:27:33;;;;;;;23.10;20.70;;;13.90;99.90;;;;;;2088177;28;20059;-69
2021/09/14 00:28:34;;;;;;;24.52;20.98;;;13.90;99.90;;;;;;2096277;28;20029;-69
2021/09/14 00:29:34;;;;;;;23.60;20.95;;;13.90;99.90;;;;;;2088106;28;20389;-69
2021/09/14 00:30:35;;;;;;;23.45;20.98;;;13.90;99.90;;;;;;2092835;28;20036;-69
2021/09/14 00:31:36;;;;;;;23.25;20.80;;;13.90;99.90;;;;;;2095677;28;20029;-68
2021/09/14 00:32:36;;;;;;;23.60;21.13;;;13.90;99.90;;;;;;2096417;28;20016;-69
2021/09/14 00:33:37;;;;;;;26.33;22.55;;;13.90;99.90;;;;;;2090338;28;20029;-69
2021/09/14 00:34:38;;;;;;;24.58;21.77;;;13.90;99.90;;;;;;2088063;28;20037;-68
2021/09/14 00:35:38;;;;;;;24.17;21.65;;;13.90;99.90;;;;;;2087936;28;20143;-69
2021/09/14 00:36:39;;;;;;;24.20;21.70;;;13.90;99.90;;;;;;2088154;28;20643;-69
2021/09/14 00:37:39;;;;;;;24.45;22.00;;;13.90;99.90;;;;;;2088062;28;20793;-69
2021/09/14 00:38:40;;;;;;;25.13;22.52;;;13.90;99.90;;;;;;2093715;28;20040;-68
2021/09/14 00:39:41;;;;;;;23.42;20.85;;;13.90;99.90;;;;;;2096043;28;20025;-69
2021/09/14 00:40:42;;;;;;;24.48;21.58;;;13.90;99.90;;;;;;2087467;28;20032;-69
2021/09/14 00:41:42;;;;;;;23.63;21.02;;;13.80;99.90;;;;;;2089953;28;20025;-69
2021/09/14 00:42:43;;;;;;;23.67;21.17;;;13.90;99.90;;;;;;2089412;28;20033;-69
2021/09/14 00:43:55;;;;;;;24.52;21.10;;;13.90;99.90;;;;;;2096906;28;20032;-69
2021/09/14 00:44:56;;;;;;;24.25;21.65;;;13.90;99.90;;;;;;2096813;28;20032;-69
2021/09/14 00:45:56;;;;;;;24.45;21.95;;;13.90;99.90;;;;;;2096660;28;20056;-70
2021/09/14 00:46:57;;;;;;;22.63;20.30;;;13.90;99.90;;;;;;2090734;28;20021;-70
2021/09/14 00:47:58;;;;;;;23.58;21.08;;;13.90;99.90;;;;;;2090146;28;20124;-69
2021/09/14 00:48:58;;;;;;;23.23;20.77;;;13.90;99.90;;;;;;2092426;28;20056;-69
2021/09/14 00:50:00;;;;;;;22.77;20.45;;;13.90;99.90;;;;;;2095681;28;20150;-69
2021/09/14 00:51:02;;;;;;;23.60;21.10;;;13.90;99.90;;;;;;2096047;28;20062;-71
2021/09/14 00:52:03;;;;;;;27.20;21.73;;;13.90;99.90;;;;;;2096208;28;20508;-69
2021/09/14 00:53:04;;;;;;;23.38;20.88;;;13.90;99.90;;;;;;2096182;28;20029;-70
2021/09/14 00:54:05;;;;;;;22.88;20.48;;;14.00;99.90;;;;;;2095906;28;20029;-69
2021/09/14 00:55:06;;;;;;;23.27;20.67;;;13.90;99.90;;;;;;2095775;28;20563;-70
2021/09/14 00:56:08;;;;;;;22.90;20.40;;;14.00;99.90;;;;;;2096305;28;20104;-70
2021/09/14 00:57:09;;;;;;;24.40;20.42;;;14.00;99.90;;;;;;2096719;28;21558;-70
2021/09/14 00:58:09;;;;;;;23.05;20.55;;;14.00;99.90;;;;;;2096094;28;20025;-69
2021/09/14 00:59:10;;;;;;;22.15;19.73;;;14.00;99.90;;;;;;2096312;28;20531;-69
2021/09/14 01:00:11;;;;;;;22.55;20.15;;;14.00;99.90;;;;;;2095319;28;20166;-69
2021/09/14 01:01:12;;;;;;;22.40;20.05;;;14.00;99.90;;;;;;2093166;28;20068;-71
2021/09/14 01:02:14;;;;;;;22.35;19.42;;;14.00;99.90;;;;;;2096933;28;20024;-69
2021/09/14 01:03:15;;;;;;;22.80;20.33;;;14.10;99.90;;;;;;2096911;28;20028;-69
2021/09/14 01:04:15;;;;;;;22.10;19.90;;;14.00;99.90;;;;;;2096106;28;20574;-69
2021/09/14 01:05:16;;;;;;;23.00;19.98;;;14.10;99.90;;;;;;2094978;28;20032;-70
2021/09/14 01:06:17;;;;;;;23.00;20.33;;;14.10;99.90;;;;;;2096176;28;20062;-70
2021/09/14 01:07:18;;;;;;;21.83;19.63;;;14.10;99.90;;;;;;2087615;28;20446;-70
2021/09/14 01:08:19;;;;;;;22.00;19.80;;;14.10;99.90;;;;;;2087960;28;20033;-69
2021/09/14 01:09:21;;;;;;;21.58;19.30;;;14.10;99.90;;;;;;2090487;28;20029;-70
2021/09/14 01:10:22;;;;;;;21.10;18.90;;;14.20;99.90;;;;;;2095482;28;20036;-70
2021/09/14 01:11:23;;;;;;;20.40;18.42;;;14.20;99.90;;;;;;2088367;28;20025;-69
2021/09/14 01:12:24;;;;;;;23.60;20.08;;;14.20;99.90;;;;;;2096230;28;20489;-70
2021/09/14 01:13:24;;;;;;;21.58;19.35;;;14.20;99.90;;;;;;2087891;28;20679;-70
2021/09/14 01:14:25;;;;;;;23.05;20.65;;;14.20;99.90;;;;;;2095050;28;20075;-70
2021/09/14 01:15:26;;;;;;;22.80;20.30;;;14.20;99.90;;;;;;2087699;28;20112;-70
2021/09/14 01:16:30;;;;;;;21.55;19.33;;;14.20;99.90;;;;;;2076669;28;20044;-70
2021/09/14 01:17:30;;;;;;;24.30;20.23;;;14.20;99.90;;;;;;2088540;28;20122;-70
2021/09/14 01:18:31;;;;;;;21.60;19.40;;;14.20;99.90;;;;;;2096196;28;20109;-69
2021/09/14 01:19:32;;;;;;;21.67;19.40;;;14.20;99.90;;;;;;2093687;28;20024;-70
2021/09/14 01:20:32;;;;;;;22.10;19.80;;;14.20;99.90;;;;;;2090330;28;20028;-69
2021/09/14 01:21:33;;;;;;;24.52;20.20;;;14.20;99.90;;;;;;2095370;28;20038;-70
2021/09/14 01:22:35;;;;;;;21.83;19.52;;;14.20;99.90;;;;;;2087798;28;20087;-70
2021/09/14 01:23:35;;;;;;;21.20;18.98;;;14.20;99.90;;;;;;2088147;28;20071;-70
2021/09/14 01:24:37;;;;;;;21.60;19.08;;;14.10;99.90;;;;;;2095944;28;20032;-70
2021/09/14 01:25:41;;;;;;;21.98;19.17;;;14.10;99.90;;;;;;2087701;28;20036;-69
2021/09/14 01:26:43;;;;;;;21.33;19.13;;;14.10;99.90;;;;;;2087884;28;20063;-70
2021/09/14 01:27:48;;;;;;;21.40;18.65;;;14.10;99.90;;;;;;2088288;28;20391;-70
2021/09/14 01:28:55;;;;;;;21.33;19.00;;;14.10;99.90;;;;;;2084318;28;20632;-70
2021/09/14 01:31:19;;;;;;;22.60;19.60;;;14.00;99.90;;;;;;2087213;28;20025;-70
2021/09/14 01:32:20;;;;;;;24.13;20.48;;;14.00;99.90;;;;;;2092265;28;20032;-70
2021/09/14 01:33:20;;;;;;;22.70;19.98;;;14.00;99.90;;;;;;2096024;28;20029;-70
2021/09/14 01:34:21;;;;;;;22.80;20.40;;;14.00;99.90;;;;;;2095995;28;20524;-70
2021/09/14 01:35:27;;;;;;;23.98;20.20;;;13.90;99.90;;;;;;2095925;28;20029;-70
2021/09/14 01:36:32;;;;;;;25.42;20.38;;;13.90;99.90;;;;;;2096798;28;20504;-70
2021/09/14 01:37:32;;;;;;;22.88;20.48;;;13.90;99.90;;;;;;2104080;28;20111;-70
2021/09/14 01:38:33;;;;;;;23.23;20.60;;;13.80;99.90;;;;;;2094990;28;20021;-71
2021/09/14 01:39:34;;;;;;;27.35;21.67;;;13.80;99.90;;;;;;2096044;28;20033;-70
2021/09/14 01:40:35;;;;;;;23.10;20.23;;;13.80;99.90;;;;;;2095040;28;20421;-70
2021/09/14 01:41:39;;;;;;;23.20;20.65;;;13.80;99.90;;;;;;2087960;28;20021;-70
2021/09/14 01:42:41;;;;;;;23.45;20.67;;;13.80;99.90;;;;;;2087708;28;20033;-70
2021/09/14 01:43:43;;;;;;;23.92;21.00;;;13.70;99.90;;;;;;2087595;28;20410;-70
2021/09/14 01:44:44;;;;;;;24.70;21.92;;;13.70;99.90;;;;;;2079575;28;20038;-70
2021/09/14 01:45:46;;;;;;;23.83;21.33;;;13.70;99.90;;;;;;2079730;28;20022;-70
2021/09/14 01:46:56;;;;;;;23.40;21.00;;;13.70;99.90;;;;;;2092741;28;20071;-70
2021/09/14 01:47:56;;;;;;;25.17;22.10;;;13.70;99.90;;;;;;2096918;28;20036;-70
2021/09/14 01:48:57;;;;;;;25.60;22.85;;;13.70;99.90;;;;;;2088909;28;20033;-70
2021/09/14 01:49:59;;;;;;;25.73;22.73;;;13.70;99.90;;;;;;2088609;28;20397;-70
2021/09/14 01:51:03;;;;;;;26.15;23.02;;;13.60;99.90;;;;;;2088401;28;20033;-71
2021/09/14 01:52:06;;;;;;;24.95;22.25;;;13.60;99.90;;;;;;2097621;28;20029;-70
2021/09/14 01:53:07;;;;;;;25.08;22.38;;;13.50;99.90;;;;;;2089090;28;20366;-71
2021/09/14 01:54:10;;;;;;;25.30;22.70;;;13.60;99.90;;;;;;2081375;28;20819;-70
2021/09/14 01:55:13;;;;;;;25.67;22.98;;;13.50;99.90;;;;;;2089402;28;20614;-69
2021/09/14 01:56:16;;;;;;;24.33;21.80;;;13.50;99.90;;;;;;2097618;28;20032;-69
2021/09/14 01:57:22;;;;;;;26.55;22.98;;;13.50;99.90;;;;;;2089289;28;20095;-71
2021/09/14 01:58:22;;;;;;;26.08;23.27;;;13.50;99.90;;;;;;2088744;28;20049;-70
2021/09/14 01:59:25;;;;;;;25.75;22.77;;;13.50;99.90;;;;;;2090820;28;20574;-70
2021/09/14 02:00:35;;;;;;;26.15;23.45;;;13.50;99.90;;;;;;2088868;28;20056;-70
2021/09/14 02:01:49;;;;;;;27.30;23.48;;;13.50;99.90;;;;;;2092762;28;20079;-70
2021/09/14 02:03:06;;;;;;;25.30;22.60;;;13.50;99.90;;;;;;2096627;28;20043;-69
2021/09/14 02:04:55;;;;;;;25.25;22.55;;;13.50;99.90;;;;;;2089462;28;20047;-69
2021/09/14 02:05:50;;;;;;;25.80;22.77;;;13.40;99.90;;;;;;2083951;28;20045;-69
2021/09/14 02:23:39;;;;;;;28.80;23.15;;;13.40;99.90;;;;;;2090217;28;20501;-68
2021/09/14 02:33:50;;;;;;;26.20;23.35;;;13.30;99.90;;;;;;2097078;28;20044;-68
2021/09/14 02:38:32;;;;;;;26.23;23.52;;;13.20;99.90;;;;;;2089696;28;20025;-69
2021/09/14 02:42:33;;;;;;;28.00;25.00;;;13.20;99.90;;;;;;2089371;28;20484;-68
2021/09/14 02:56:43;;;;;;;25.27;22.60;;;13.10;99.90;;;;;;2089298;28;20033;-69
2021/09/14 02:59:03;;;;;;;26.42;23.20;;;13.20;99.90;;;;;;2091507;28;20110;-68
2021/09/14 03:00:05;;;;;;;26.52;23.55;;;13.20;99.90;;;;;;2092844;28;20025;-69
2021/09/14 03:01:10;;;;;;;24.92;22.33;;;13.20;99.90;;;;;;2096608;28;20107;-68
2021/09/14 03:02:11;;;;;;;24.50;21.90;;;13.20;99.90;;;;;;2096976;28;20099;-69
2021/09/14 03:03:12;;;;;;;24.65;22.00;;;13.30;99.90;;;;;;2088815;28;20224;-68
2021/09/14 03:04:14;;;;;;;24.55;21.98;;;13.30;99.90;;;;;;2080528;28;20065;-69
2021/09/14 03:05:16;;;;;;;25.40;22.70;;;13.30;99.90;;;;;;2089077;28;20021;-69
2021/09/14 03:06:20;;;;;;;24.55;22.02;;;13.40;99.90;;;;;;2096741;28;20044;-69
2021/09/14 03:07:22;;;;;;;24.33;21.80;;;13.30;99.90;;;;;;2097062;28;20033;-69
2021/09/14 03:08:23;;;;;;;25.00;22.30;;;13.30;99.90;;;;;;2097020;28;20021;-69
2021/09/14 03:09:24;;;;;;;25.70;22.38;;;13.30;99.90;;;;;;2096754;28;20062;-69
2021/09/14 03:10:25;;;;;;;24.83;22.13;;;13.30;99.90;;;;;;2089015;28;20578;-69
2021/09/14 03:11:26;;;;;;;24.23;21.63;;;13.30;99.90;;;;;;2080091;28;20025;-69
2021/09/14 03:12:34;;;;;;;25.08;22.00;;;13.40;99.90;;;;;;2092796;28;20658;-68
2021/09/14 03:13:37;;;;;;;23.98;21.48;;;13.30;99.90;;;;;;2095729;28;20025;-69
2021/09/14 03:14:38;;;;;;;24.65;21.00;;;13.40;99.90;;;;;;2082392;28;20022;-69
2021/09/14 03:15:38;;;;;;;24.10;21.50;;;13.40;99.90;;;;;;2080226;28;20025;-69
2021/09/14 03:16:39;;;;;;;24.95;21.63;;;13.40;99.90;;;;;;2080288;28;20037;-69
2021/09/14 03:17:40;;;;;;;23.48;21.08;;;13.40;99.90;;;;;;2092586;28;20036;-69
2021/09/14 03:18:41;;;;;;;22.45;20.15;;;13.40;99.90;;;;;;2105295;28;20059;-69
2021/09/14 03:19:41;;;;;;;23.52;21.00;;;13.40;99.90;;;;;;2096771;28;20035;-69
2021/09/14 03:20:42;;;;;;;23.02;20.63;;;13.40;99.90;;;;;;2096154;28;20036;-69
2021/09/14 03:21:43;;;;;;;22.85;20.45;;;13.40;99.90;;;;;;2093427;28;20031;-69
2021/09/14 03:22:45;;;;;;;21.55;19.35;;;13.40;99.90;;;;;;2080708;28;20060;-69
2021/09/14 03:23:46;;;;;;;22.73;20.30;;;13.50;99.90;;;;;;2084748;28;20025;-69
2021/09/14 03:24:49;;;;;;;21.85;19.40;;;13.40;99.90;;;;;;2095744;28;20024;-69
2021/09/14 03:25:51;;;;;;;21.85;19.65;;;13.40;99.90;;;;;;2096470;28;20071;-70
2021/09/14 03:26:57;;;;;;;22.02;19.67;;;13.40;99.90;;;;;;2088418;28;20032;-69
2021/09/14 03:27:58;;;;;;;23.08;20.70;;;13.40;99.90;;;;;;2084410;28;20029;-69
2021/09/14 03:29:00;;;;;;;24.02;20.48;;;13.40;99.90;;;;;;2088717;28;20560;-69
2021/09/14 03:30:05;;;;;;;22.20;19.85;;;13.40;99.90;;;;;;2096838;28;20077;-70
2021/09/14 03:31:10;;;;;;;25.65;20.83;;;13.30;99.90;;;;;;2098261;28;20777;-70
2021/09/14 03:32:11;;;;;;;24.33;20.88;;;13.40;99.90;;;;;;2106915;28;20078;-70
2021/09/14 03:33:15;;;;;;;22.70;20.40;;;13.40;99.90;;;;;;2095173;28;20036;-70
2021/09/14 03:34:17;;;;;;;24.17;20.58;;;13.30;99.90;;;;;;2090752;28;20020;-70
2021/09/14 03:35:18;;;;;;;23.25;20.83;;;13.30;99.90;;;;;;2095038;28;20119;-70
2021/09/14 03:36:20;;;;;;;22.70;20.27;;;13.40;99.90;;;;;;2105619;28;20035;-70
2021/09/14 03:37:24;;;;;;;22.95;20.52;;;13.30;99.90;;;;;;2104643;28;20106;-70
2021/09/14 03:38:25;;;;;;;23.70;20.95;;;13.30;99.90;;;;;;2104796;28;20436;-70
2021/09/14 03:39:25;;;;;;;23.52;20.98;;;13.30;99.90;;;;;;2096583;28;20029;-69
2021/09/14 03:40:28;;;;;;;22.75;20.42;;;13.30;99.90;;;;;;2096171;28;20131;-68
2021/09/14 03:41:29;;;;;;;23.80;20.75;;;13.30;99.90;;;;;;2096335;28;20032;-69
2021/09/14 03:42:30;;;;;;;22.58;20.25;;;13.20;99.90;;;;;;2096651;28;20028;-68
2021/09/14 03:43:32;;;;;;;24.23;21.70;;;13.30;99.90;;;;;;2104758;28;20039;-68
2021/09/14 03:44:33;;;;;;;23.52;21.00;;;13.20;99.90;;;;;;2094120;28;20060;-68
2021/09/14 03:45:34;;;;;;;23.60;21.05;;;13.20;99.90;;;;;;2088285;28;20159;-68
2021/09/14 03:46:34;;;;;;;24.50;21.90;;;13.20;99.90;;;;;;2079979;28;20032;-68
2021/09/14 03:47:36;;;;;;;23.58;21.08;;;13.20;99.90;;;;;;2092284;28;20025;-68
2021/09/14 03:48:36;;;;;;;25.40;21.65;;;13.20;99.90;;;;;;2088836;28;20443;-69
2021/09/14 03:49:38;;;;;;;23.67;21.15;;;13.20;99.90;;;;;;2088938;28;20436;-69
2021/09/14 03:50:39;;;;;;;24.77;21.80;;;13.30;99.90;;;;;;2095640;28;20025;-69
2021/09/14 03:51:40;;;;;;;23.63;20.88;;;13.20;99.90;;;;;;2091184;28;20116;-68
2021/09/14 03:52:41;;;;;;;24.02;21.52;;;13.30;99.90;;;;;;2096433;28;20568;-69
2021/09/14 03:53:42;;;;;;;23.45;21.05;;;13.30;99.90;;;;;;2096623;28;20032;-67
2021/09/14 03:54:42;;;;;;;24.35;21.05;;;13.30;99.90;;;;;;2091222;28;20048;-72
2021/09/14 03:55:44;;;;;;;23.88;21.35;;;13.30;99.90;;;;;;2080670;28;20041;-70
2021/09/14 03:56:45;;;;;;;23.52;21.02;;;13.30;99.90;;;;;;2088731;28;20031;-69
2021/09/14 03:57:45;;;;;;;24.08;21.45;;;13.30;99.90;;;;;;2089368;28;20029;-70
2021/09/14 03:58:47;;;;;;;23.85;21.38;;;13.30;99.90;;;;;;2093266;28;20025;-70
2021/09/14 03:59:47;;;;;;;23.40;21.00;;;13.30;99.90;;;;;;2095664;28;20043;-70
2021/09/14 04:00:54;;;;;;;23.55;21.02;;;13.30;99.90;;;;;;2095304;28;20603;-70
2021/09/14 04:02:00;;;;;;;23.38;20.98;;;13.20;99.90;;;;;;2089357;28;20090;-70
2021/09/14 04:03:13;;;;;;;22.83;20.42;;;13.30;99.90;;;;;;2103649;28;20028;-70
2021/09/14 04:04:19;;;;;;;23.63;21.15;;;13.30;99.90;;;;;;2096045;28;20028;-70
2021/09/14 04:05:34;;;;;;;24.98;21.27;;;13.30;99.90;;;;;;2097408;28;20087;-70
2021/09/14 04:06:54;;;;;;;23.88;20.70;;;13.30;99.90;;;;;;2096814;28;20563;-69
2021/09/14 04:09:10;;;;;;;26.08;21.30;;;13.30;99.90;;;;;;2099680;28;20024;-70
2021/09/14 04:10:31;;;;;;;22.88;20.38;;;13.30;99.90;;;;;;2095982;28;20033;-70
2021/09/14 04:11:32;;;;;;;23.55;21.05;;;13.30;99.90;;;;;;2099284;28;20016;-70
2021/09/14 04:12:34;;;;;;;21.80;19.48;;;13.30;99.90;;;;;;2105223;28;20082;-69
2021/09/14 04:13:34;;;;;;;21.65;19.38;;;13.40;99.90;;;;;;2097552;28;20552;-70
2021/09/14 04:14:35;;;;;;;21.48;19.27;;;13.40;99.90;;;;;;2096208;28;20024;-70
2021/09/14 04:15:36;;;;;;;22.15;19.75;;;13.40;99.90;;;;;;2096151;28;20025;-70
2021/09/14 04:16:39;;;;;;;22.10;19.73;;;13.40;99.90;;;;;;2096737;28;20113;-70
2021/09/14 04:17:40;;;;;;;22.90;20.20;;;13.40;99.90;;;;;;2100729;28;20081;-70
2021/09/14 04:18:41;;;;;;;21.83;19.60;;;13.40;99.90;;;;;;2097148;28;20150;-70
2021/09/14 04:19:42;;;;;;;20.95;18.75;;;13.40;99.90;;;;;;2096564;28;20142;-70
2021/09/14 04:20:44;;;;;;;21.67;19.30;;;13.40;99.90;;;;;;2096552;28;20082;-69
2021/09/14 04:21:45;;;;;;;21.13;18.88;;;13.30;99.90;;;;;;2097096;28;20769;-70
2021/09/14 04:22:50;;;;;;;21.67;19.48;;;13.30;99.90;;;;;;2089713;28;20460;-70
2021/09/14 04:23:51;;;;;;;22.73;20.05;;;13.30;99.90;;;;;;2097230;28;20036;-70
2021/09/14 04:24:51;;;;;;;21.90;19.65;;;13.30;99.90;;;;;;2085394;28;20075;-70
2021/09/14 04:25:53;;;;;;;21.73;19.42;;;13.30;99.90;;;;;;2087892;28;20111;-68
2021/09/14 04:26:53;;;;;;;22.15;19.73;;;13.30;99.90;;;;;;2093538;28;20024;-69
2021/09/14 04:27:54;;;;;;;22.63;20.00;;;13.30;99.90;;;;;;2088790;28;20517;-70
2021/09/14 04:28:55;;;;;;;22.80;20.30;;;13.30;99.90;;;;;;2093505;28;20040;-70
2021/09/14 04:29:56;;;;;;;22.83;20.33;;;13.20;99.90;;;;;;2088557;28;20044;-69
2021/09/14 04:30:58;;;;;;;22.58;19.92;;;13.30;99.90;;;;;;2079526;28;20564;-68
2021/09/14 04:31:58;;;;;;;22.63;20.15;;;13.30;99.90;;;;;;2080280;28;20029;-70
2021/09/14 04:32:59;;;;;;;22.85;20.35;;;13.30;99.90;;;;;;2088438;28;20017;-67
2021/09/14 04:34:00;;;;;;;22.33;19.77;;;13.30;99.90;;;;;;2089243;28;20130;-71
2021/09/14 04:35:00;;;;;;;22.85;20.40;;;13.30;99.90;;;;;;2092616;28;20033;-68
2021/09/14 04:36:01;;;;;;;21.30;19.10;;;13.30;99.90;;;;;;2096713;28;20089;-69
2021/09/14 04:37:06;;;;;;;21.50;19.30;;;13.30;99.90;;;;;;2088758;28;20084;-70
2021/09/14 04:38:07;;;;;;;22.35;19.83;;;13.30;99.90;;;;;;2091664;28;20061;-69
2021/09/14 04:39:08;;;;;;;20.88;18.67;;;13.30;99.90;;;;;;2088674;28;20025;-70
2021/09/14 04:40:10;;;;;;;21.08;18.88;;;13.30;99.90;;;;;;2088406;28;20036;-70
2021/09/14 04:41:10;;;;;;;21.20;18.58;;;13.30;99.90;;;;;;2089101;28;20485;-70
2021/09/14 04:42:11;;;;;;;22.63;20.23;;;13.30;99.90;;;;;;2094383;28;20028;-69
2021/09/14 04:43:12;;;;;;;22.27;19.90;;;13.30;99.90;;;;;;2080967;28;20561;-70
2021/09/14 04:44:12;;;;;;;22.25;19.55;;;13.40;99.90;;;;;;2088171;28;20043;-70
2021/09/14 04:45:14;;;;;;;21.42;18.85;;;13.30;99.90;;;;;;2096689;28;20337;-70
2021/09/14 04:46:16;;;;;;;21.88;19.30;;;13.30;99.90;;;;;;2096303;28;20130;-70
2021/09/14 04:47:18;;;;;;;22.10;19.80;;;13.30;99.90;;;;;;2095882;28;20025;-70
2021/09/14 04:48:19;;;;;;;22.15;19.30;;;13.30;99.90;;;;;;2096794;28;20799;-70
2021/09/14 04:49:20;;;;;;;21.02;18.83;;;13.40;99.90;;;;;;2088382;28;20055;-70
2021/09/14 04:50:21;;;;;;;20.45;18.40;;;13.40;99.90;;;;;;2090176;28;20756;-70
2021/09/14 04:51:22;;;;;;;22.05;19.75;;;13.40;99.90;;;;;;2098306;28;20511;-70
2021/09/14 04:52:23;;;;;;;22.92;19.83;;;13.40;99.90;;;;;;2080216;28;20723;-70
2021/09/14 04:53:24;;;;;;;21.02;18.83;;;13.40;99.90;;;;;;2080687;28;20021;-70
2021/09/14 04:54:27;;;;;;;21.73;18.95;;;13.50;99.90;;;;;;2088761;28;20013;-70
2021/09/14 04:55:29;;;;;;;22.55;20.20;;;13.50;99.90;;;;;;2088523;28;20029;-70
2021/09/14 04:56:30;;;;;;;21.15;18.88;;;13.50;99.90;;;;;;2093950;28;20110;-70
2021/09/14 04:57:31;;;;;;;21.33;19.13;;;13.50;99.90;;;;;;2104543;28;20020;-70
2021/09/14 04:58:34;;;;;;;20.77;18.67;;;13.50;99.90;;;;;;2088947;28;20017;-69
2021/09/14 04:59:37;;;;;;;21.40;19.15;;;13.50;99.90;;;;;;2103728;28;20055;-69
2021/09/14 05:00:38;;;;;;;21.58;19.05;;;13.60;99.90;;;;;;2091535;28;20027;-70
2021/09/14 05:01:40;;;;;;;22.02;19.63;;;13.60;99.90;;;;;;2091054;28;20033;-69
2021/09/14 05:02:41;;;;;;;22.10;19.30;;;13.60;99.90;;;;;;2096706;28;20028;-69
2021/09/14 05:03:42;;;;;;;21.35;19.08;;;13.60;99.90;;;;;;2096567;28;20441;-69
2021/09/14 05:04:42;;;;;;;22.55;18.73;;;13.60;99.90;;;;;;2092367;28;20834;-69
2021/09/14 05:05:43;;;;;;;22.42;18.27;;;13.60;99.90;;;;;;2091743;28;20545;-69
2021/09/14 05:06:46;;;;;;;22.13;19.13;;;13.70;99.90;;;;;;2096449;28;20040;-69
2021/09/14 05:07:47;;;;;;;20.58;18.42;;;13.70;99.90;;;;;;2088087;28;20115;-69
2021/09/14 05:08:47;;;;;;;20.25;17.95;;;13.70;99.90;;;;;;2088445;28;20025;-69
2021/09/14 05:09:49;;;;;;;20.85;18.48;;;13.70;99.90;;;;;;2088445;28;20509;-69
2021/09/14 05:10:51;;;;;;;21.48;19.20;;;13.80;99.90;;;;;;2096231;28;20029;-69
2021/09/14 05:11:52;;;;;;;20.92;18.63;;;13.80;99.90;;;;;;2097271;28;20021;-69
2021/09/14 05:12:55;;;;;;;21.80;18.73;;;13.80;99.90;;;;;;2096927;28;20110;-69
2021/09/14 05:13:55;;;;;;;21.83;18.40;;;13.80;99.90;;;;;;2096840;28;20475;-69
2021/09/14 05:14:58;;;;;;;20.52;18.13;;;13.90;99.90;;;;;;2096792;28;20016;-69
2021/09/14 05:16:20;;;;;;;21.15;18.13;;;13.90;99.90;;;;;;2089042;28;20040;-69
2021/09/14 05:17:41;;;;;;;;;;;13.90;99.90;;;;;;2085708;28;20044;-69
2021/09/14 05:19:02;;;;;;;21.90;18.00;;;14.00;99.90;;;;;;2089431;28;19913;-71
2021/09/14 05:20:05;;;;;;;21.23;18.25;;;14.00;99.90;;;;;;2097334;28;20056;-69
2021/09/14 05:21:06;;;;;;;25.95;20.17;;;14.10;99.90;;;;;;2096400;28;20032;-69
2021/09/14 05:22:08;;;;;;;25.42;19.30;;;14.10;99.90;;;;;;2096820;28;20064;-70
2021/09/14 05:23:15;;;;;;;21.60;19.27;;;14.10;99.90;;;;;;2089903;28;20037;-69
2021/09/14 05:24:16;;;;;;;21.63;19.20;;;14.20;99.90;;;;;;2098362;28;20032;-69
2021/09/14 05:25:16;;;;;;;21.05;18.67;;;14.20;99.90;;;;;;2096820;28;20039;-69
2021/09/14 05:26:18;;;;;;;22.52;19.17;;;14.20;99.90;;;;;;2089652;28;20444;-69
2021/09/14 05:27:18;;;;;;;22.65;19.42;;;14.20;99.90;;;;;;2100642;28;20035;-69
2021/09/14 05:28:19;;;;;;;20.90;18.80;;;14.30;99.90;;;;;;2101021;28;20032;-69
2021/09/14 05:29:19;;;;;;;20.25;18.25;;;14.30;99.90;;;;;;2099905;28;20037;-69
2021/09/14 05:30:20;;;;;;;20.30;18.17;;;14.40;99.90;;;;;;2100060;28;20035;-69
2021/09/14 05:31:21;;;;;;;20.27;18.10;;;14.40;99.90;;;;;;2099294;28;20020;-70
2021/09/14 05:32:22;;;;;;;21.88;18.75;;;14.40;99.90;;;;;;2098046;28;20054;-69
2021/09/14 05:33:22;;;;;;;20.60;18.40;;;14.40;99.90;;;;;;2091370;28;20083;-69
2021/09/14 05:34:24;;;;;;;21.30;18.48;;;14.50;99.90;;;;;;2091904;28;20021;-67
2021/09/14 05:35:31;;;;;;;20.45;17.60;;;14.50;99.90;;;;;;2089967;28;20033;-68
2021/09/14 05:36:33;;;;;;;20.48;18.25;;;14.60;99.90;;;;;;2090178;28;20531;-68
2021/09/14 05:37:33;;;;;;;18.73;16.83;;;14.70;99.90;;;;;;2089720;28;20053;-68
2021/09/14 05:38:34;;;;;;;19.15;16.95;;;14.70;99.90;;;;;;2089629;28;20029;-68
2021/09/14 05:39:36;;;;;;;18.60;16.58;;;14.80;99.90;;;;;;2090181;28;20036;-68
2021/09/14 05:40:37;;;;;;;19.00;17.00;;;14.80;99.90;;;;;;2089093;28;20048;-68
2021/09/14 05:41:47;;;;;;;21.92;18.60;;;14.80;99.90;;;;;;2092688;28;20052;-68
2021/09/14 05:42:48;;;;;;;19.48;17.55;;;14.90;99.90;;;;;;2099613;28;20029;-69
2021/09/14 05:43:49;;;;;;;21.52;19.23;;;14.90;99.90;;;;;;2106177;28;20042;-69
2021/09/14 05:44:50;;;;;;;20.25;18.15;;;14.90;99.90;;;;;;2106240;28;20055;-69
2021/09/14 05:45:56;;;;;;;20.35;17.92;;;14.90;99.90;;;;;;2105706;28;20779;-68
2021/09/14 05:47:04;;;;;;;19.48;17.15;;;15.00;99.90;;;;;;2089307;28;20112;-67
2021/09/14 05:48:06;;;;;;;18.65;16.75;;;15.00;99.90;;;;;;2082013;28;20040;-68
2021/09/14 05:49:12;;;;;;;19.20;17.23;;;15.00;99.90;;;;;;2088495;28;20102;-67
2021/09/14 05:50:13;;;;;;;20.05;18.02;;;15.10;99.90;;;;;;2097087;28;20028;-68
2021/09/14 05:51:16;;;;;;;19.10;17.20;;;15.10;99.90;;;;;;2097204;28;20443;-68
2021/09/14 05:52:26;;;;;;;21.10;18.40;;;15.10;99.90;;;;;;2091000;28;20057;-68
2021/09/14 05:53:27;;;;;;;18.95;16.98;;;15.20;99.90;;;;;;2097323;28;20028;-68
2021/09/14 05:54:30;;;;;;;18.85;16.17;;;15.20;99.90;;;;;;2094712;28;20103;-68
2021/09/14 05:55:31;;;;;;;19.65;17.02;;;15.30;99.90;;;;;;2098338;28;20086;-68
2021/09/14 05:56:35;;;;;;;18.60;16.60;;;15.30;99.90;;;;;;2088617;28;20021;-68
2021/09/14 05:57:46;;;;;;;21.27;17.80;;;15.30;99.90;;;;;;2085829;28;20029;-68
2021/09/14 05:58:46;;;;;;;24.27;19.35;;;15.40;99.90;;;;;;2089453;28;20029;-69
2021/09/14 05:59:49;;;;;;;22.17;19.23;;;15.40;99.90;;;;;;2089425;28;20025;-70
2021/09/14 06:00:53;;;;;;;20.13;17.98;;;15.50;99.90;;;;;;2089513;28;20025;-70
2021/09/14 06:01:58;;;;;;;23.42;18.02;;;15.60;99.90;;;;;;2098170;28;20024;-69
2021/09/14 06:03:01;;;;;;;19.23;17.10;;;15.70;99.90;;;;;;2105686;28;20058;-69
2021/09/14 06:04:04;;;;;;;17.98;16.08;;;15.70;99.90;;;;;;2096969;28;20051;-69
2021/09/14 06:05:07;;;;;;;17.52;15.70;;;15.70;99.90;;;;;;2097355;28;20024;-69
2021/09/14 06:06:08;;;;;;;17.02;15.25;;;15.70;99.90;;;;;;2097353;28;20090;-69